Airfield :
LOGIN :

Register | Disclaimer

   EN    FR    IT 

 










Legend :    VFR   Marginal VFR   IFR   Intensive IFR   Very Intensive IFR
Visi :
Ceiling :
>= 8 km
>= 3000ft
5 to 8 km
1000 to 3000 ft
1500m to 5 km
500 to 1000 ft
800 to 1500m
200 to 500 ft
< 800m
< 200 ft
Symbols :   Thunderstorms  Fog  Heavy snow  Heavy precipitations  Wind > 20 kt
SIGMETs :     Misc.  Thunderstorms  Icing  Turbulence  Mountain Waves  Volcanic Ashes






- Airport Elevation : 425 ft
- IATA code : DTM


EDLW - Dortmund

CURRENT METAR :
  • 241450Z 23010KT 9999 OVC028 18/14 Q1015

EXPIRED METARs :
  • 241420Z 22013KT 9999 BKN031 18/14 Q1016
  • 241350Z 23012KT 9999 FEW022 BKN026 19/14 Q1016
  • 241320Z 23013KT 200V260 9999 SCT021 BKN027 19/13 Q1016
  • 241250Z 23012KT 9999 SCT020 BKN024 18/14 Q1016
  • 241220Z 23007KT 210V280 9999 OVC018 18/14 Q1016

TAF TAF EDLW
Valid from the 24 at 12:00 until the 25 at 12:00 UTC


241100Z 2412/2512 22008KT 9999 BKN009
BECMG 2412/2415 SCT009 BKN020



MET'MAP, your aeronautical weather chart ! - Copyright ORBIFLY December 2007 - Disclaimer

ORBIFLY MET'MAP TEAM :

Programming & Development : Alexandra Zaïnal
Concept & original design : Baudouin d'Aumeries
Assistance for programming : Marc-Olivier Méhu
Technical & hardware support : Manuel Goepfert

Contact : metmap@orbifly.com




SOURCES & CREDITS :

   NOAA